sensor_id;sensor_type;location;lat;lon;timestamp;P1;durP1;ratioP1;P2;durP2;ratioP2
4642;SDS011;2334;48.710;9.622;2022-07-11T00:02:15;4.20;;;1.40;;
4642;SDS011;2334;48.710;9.622;2022-07-11T00:04:42;1.70;;;1.03;;
4642;SDS011;2334;48.710;9.622;2022-07-11T00:07:10;1.07;;;0.90;;
4642;SDS011;2334;48.710;9.622;2022-07-11T00:09:38;4.20;;;2.40;;
4642;SDS011;2334;48.710;9.622;2022-07-11T00:12:05;1.03;;;1.03;;
4642;SDS011;2334;48.710;9.622;2022-07-11T00:14:33;2.27;;;1.30;;
4642;SDS011;2334;48.710;9.622;2022-07-11T00:17:00;2.20;;;1.23;;
4642;SDS011;2334;48.710;9.622;2022-07-11T00:19:27;4.60;;;1.67;;
4642;SDS011;2334;48.710;9.622;2022-07-11T00:21:54;1.63;;;1.53;;
4642;SDS011;2334;48.710;9.622;2022-07-11T00:24:21;2.10;;;1.37;;
4642;SDS011;2334;48.710;9.622;2022-07-11T00:26:51;1.30;;;1.20;;
4642;SDS011;2334;48.710;9.622;2022-07-11T00:29:18;1.77;;;1.20;;
4642;SDS011;2334;48.710;9.622;2022-07-11T00:31:45;1.73;;;1.10;;
4642;SDS011;2334;48.710;9.622;2022-07-11T00:34:12;2.20;;;1.20;;
4642;SDS011;2334;48.710;9.622;2022-07-11T00:36:39;1.60;;;1.50;;
4642;SDS011;2334;48.710;9.622;2022-07-11T00:39:06;1.00;;;1.00;;
4642;SDS011;2334;48.710;9.622;2022-07-11T00:41:33;2.67;;;1.20;;
4642;SDS011;2334;48.710;9.622;2022-07-11T00:44:02;1.50;;;1.40;;
4642;SDS011;2334;48.710;9.622;2022-07-11T00:46:29;3.10;;;1.20;;
4642;SDS011;2334;48.710;9.622;2022-07-11T00:48:56;1.20;;;1.10;;
4642;SDS011;2334;48.710;9.622;2022-07-11T00:51:24;1.80;;;1.03;;
4642;SDS011;2334;48.710;9.622;2022-07-11T00:53:52;1.60;;;0.90;;
4642;SDS011;2334;48.710;9.622;2022-07-11T00:56:20;2.40;;;1.50;;
4642;SDS011;2334;48.710;9.622;2022-07-11T00:58:49;2.70;;;1.20;;
4642;SDS011;2334;48.710;9.622;2022-07-11T01:01:18;0.80;;;0.80;;
4642;SDS011;2334;48.710;9.622;2022-07-11T01:03:45;1.87;;;1.47;;
4642;SDS011;2334;48.710;9.622;2022-07-11T01:06:13;2.03;;;1.30;;
4642;SDS011;2334;48.710;9.622;2022-07-11T01:08:40;4.97;;;1.60;;
4642;SDS011;2334;48.710;9.622;2022-07-11T01:11:08;4.37;;;1.43;;
4642;SDS011;2334;48.710;9.622;2022-07-11T01:13:37;4.73;;;1.40;;
4642;SDS011;2334;48.710;9.622;2022-07-11T01:16:09;1.73;;;1.47;;
4642;SDS011;2334;48.710;9.622;2022-07-11T01:18:39;2.53;;;1.20;;
4642;SDS011;2334;48.710;9.622;2022-07-11T01:21:16;1.83;;;1.23;;
4642;SDS011;2334;48.710;9.622;2022-07-11T01:23:48;2.10;;;1.40;;
4642;SDS011;2334;48.710;9.622;2022-07-11T01:26:16;1.77;;;1.33;;
4642;SDS011;2334;48.710;9.622;2022-07-11T01:28:45;1.20;;;1.10;;
4642;SDS011;2334;48.710;9.622;2022-07-11T01:31:12;2.83;;;1.67;;
4642;SDS011;2334;48.710;9.622;2022-07-11T01:33:39;1.47;;;1.20;;
4642;SDS011;2334;48.710;9.622;2022-07-11T01:36:06;2.00;;;1.00;;
4642;SDS011;2334;48.710;9.622;2022-07-11T01:38:33;4.00;;;1.63;;
4642;SDS011;2334;48.710;9.622;2022-07-11T01:41:02;2.23;;;1.50;;
4642;SDS011;2334;48.710;9.622;2022-07-11T01:43:29;2.30;;;1.40;;
4642;SDS011;2334;48.710;9.622;2022-07-11T01:45:56;2.53;;;2.30;;
4642;SDS011;2334;48.710;9.622;2022-07-11T01:48:23;2.07;;;1.50;;
4642;SDS011;2334;48.710;9.622;2022-07-11T01:50:50;1.83;;;1.43;;
4642;SDS011;2334;48.710;9.622;2022-07-11T01:53:17;1.20;;;1.20;;
4642;SDS011;2334;48.710;9.622;2022-07-11T01:55:44;3.13;;;1.73;;
4642;SDS011;2334;48.710;9.622;2022-07-11T01:58:12;1.17;;;1.13;;
4642;SDS011;2334;48.710;9.622;2022-07-11T02:00:39;2.57;;;1.40;;
4642;SDS011;2334;48.710;9.622;2022-07-11T02:03:06;3.00;;;1.30;;
4642;SDS011;2334;48.710;9.622;2022-07-11T02:05:33;1.37;;;1.30;;
4642;SDS011;2334;48.710;9.622;2022-07-11T02:08:00;4.03;;;1.47;;
4642;SDS011;2334;48.710;9.622;2022-07-11T02:10:39;2.90;;;1.30;;
4642;SDS011;2334;48.710;9.622;2022-07-11T02:13:07;1.20;;;1.20;;
4642;SDS011;2334;48.710;9.622;2022-07-11T02:15:37;3.53;;;1.90;;
4642;SDS011;2334;48.710;9.622;2022-07-11T02:18:05;2.90;;;1.30;;
4642;SDS011;2334;48.710;9.622;2022-07-11T02:20:32;1.50;;;1.40;;
4642;SDS011;2334;48.710;9.622;2022-07-11T02:22:59;1.87;;;1.77;;
4642;SDS011;2334;48.710;9.622;2022-07-11T02:25:26;6.83;;;1.80;;
4642;SDS011;2334;48.710;9.622;2022-07-11T02:27:54;5.10;;;1.50;;
4642;SDS011;2334;48.710;9.622;2022-07-11T02:30:21;1.10;;;1.10;;
4642;SDS011;2334;48.710;9.622;2022-07-11T02:32:50;2.77;;;1.63;;
4642;SDS011;2334;48.710;9.622;2022-07-11T02:35:17;1.50;;;1.40;;
4642;SDS011;2334;48.710;9.622;2022-07-11T02:37:45;1.73;;;1.60;;
4642;SDS011;2334;48.710;9.622;2022-07-11T02:40:11;2.97;;;2.20;;
4642;SDS011;2334;48.710;9.622;2022-07-11T02:42:38;2.23;;;2.07;;
4642;SDS011;2334;48.710;9.622;2022-07-11T02:45:06;1.60;;;1.33;;
4642;SDS011;2334;48.710;9.622;2022-07-11T02:47:35;1.47;;;1.23;;
4642;SDS011;2334;48.710;9.622;2022-07-11T02:50:06;4.30;;;1.60;;
4642;SDS011;2334;48.710;9.622;2022-07-11T02:52:34;4.93;;;1.90;;
4642;SDS011;2334;48.710;9.622;2022-07-11T02:55:01;2.23;;;1.53;;
4642;SDS011;2334;48.710;9.622;2022-07-11T02:57:29;1.67;;;1.50;;
4642;SDS011;2334;48.710;9.622;2022-07-11T02:59:56;2.20;;;1.70;;
4642;SDS011;2334;48.710;9.622;2022-07-11T03:02:23;1.70;;;1.60;;
4642;SDS011;2334;48.710;9.622;2022-07-11T03:04:50;3.17;;;1.60;;
4642;SDS011;2334;48.710;9.622;2022-07-11T03:07:18;4.10;;;1.50;;
4642;SDS011;2334;48.710;9.622;2022-07-11T03:09:45;2.17;;;1.70;;
4642;SDS011;2334;48.710;9.622;2022-07-11T03:12:12;1.47;;;1.37;;
4642;SDS011;2334;48.710;9.622;2022-07-11T03:14:39;1.70;;;1.60;;
4642;SDS011;2334;48.710;9.622;2022-07-11T03:17:05;1.50;;;1.30;;
4642;SDS011;2334;48.710;9.622;2022-07-11T03:19:32;2.93;;;1.70;;
4642;SDS011;2334;48.710;9.622;2022-07-11T03:21:59;2.07;;;1.87;;
4642;SDS011;2334;48.710;9.622;2022-07-11T03:24:27;25.13;;;1.93;;
4642;SDS011;2334;48.710;9.622;2022-07-11T03:26:54;1.97;;;1.70;;
4642;SDS011;2334;48.710;9.622;2022-07-11T03:29:21;1.50;;;1.40;;
4642;SDS011;2334;48.710;9.622;2022-07-11T03:31:48;4.10;;;1.60;;
4642;SDS011;2334;48.710;9.622;2022-07-11T03:34:15;4.10;;;1.97;;
4642;SDS011;2334;48.710;9.622;2022-07-11T03:36:42;7.93;;;1.93;;
4642;SDS011;2334;48.710;9.622;2022-07-11T03:39:11;6.60;;;1.53;;
4642;SDS011;2334;48.710;9.622;2022-07-11T03:41:40;7.57;;;1.80;;
4642;SDS011;2334;48.710;9.622;2022-07-11T03:44:07;2.67;;;1.50;;
4642;SDS011;2334;48.710;9.622;2022-07-11T03:46:34;1.23;;;1.03;;
4642;SDS011;2334;48.710;9.622;2022-07-11T03:49:01;5.80;;;1.70;;
4642;SDS011;2334;48.710;9.622;2022-07-11T03:51:28;2.10;;;1.60;;
4642;SDS011;2334;48.710;9.622;2022-07-11T03:53:56;1.50;;;1.40;;
4642;SDS011;2334;48.710;9.622;2022-07-11T03:56:23;6.23;;;1.83;;
4642;SDS011;2334;48.710;9.622;2022-07-11T03:58:51;1.60;;;1.50;;
4642;SDS011;2334;48.710;9.622;2022-07-11T04:01:18;2.00;;;1.73;;
4642;SDS011;2334;48.710;9.622;2022-07-11T04:03:46;1.47;;;1.30;;
4642;SDS011;2334;48.710;9.622;2022-07-11T04:06:13;2.07;;;1.30;;
4642;SDS011;2334;48.710;9.622;2022-07-11T04:08:40;4.93;;;2.20;;
4642;SDS011;2334;48.710;9.622;2022-07-11T04:11:07;1.90;;;1.80;;
4642;SDS011;2334;48.710;9.622;2022-07-11T04:13:35;4.67;;;1.67;;
4642;SDS011;2334;48.710;9.622;2022-07-11T04:16:03;1.80;;;1.70;;
4642;SDS011;2334;48.710;9.622;2022-07-11T04:18:31;7.67;;;2.23;;
4642;SDS011;2334;48.710;9.622;2022-07-11T04:20:58;2.37;;;1.63;;
4642;SDS011;2334;48.710;9.622;2022-07-11T04:23:25;3.33;;;1.70;;
4642;SDS011;2334;48.710;9.622;2022-07-11T04:25:51;5.00;;;1.93;;
4642;SDS011;2334;48.710;9.622;2022-07-11T04:28:18;2.30;;;1.90;;
4642;SDS011;2334;48.710;9.622;2022-07-11T04:30:45;4.37;;;1.70;;
4642;SDS011;2334;48.710;9.622;2022-07-11T04:33:14;3.63;;;1.93;;
4642;SDS011;2334;48.710;9.622;2022-07-11T04:35:40;1.47;;;1.40;;
4642;SDS011;2334;48.710;9.622;2022-07-11T04:38:08;1.83;;;1.53;;
4642;SDS011;2334;48.710;9.622;2022-07-11T04:40:35;2.03;;;1.70;;
4642;SDS011;2334;48.710;9.622;2022-07-11T04:43:02;3.07;;;1.53;;
4642;SDS011;2334;48.710;9.622;2022-07-11T04:45:29;10.07;;;2.10;;
4642;SDS011;2334;48.710;9.622;2022-07-11T04:47:56;3.87;;;2.20;;
4642;SDS011;2334;48.710;9.622;2022-07-11T04:50:25;1.47;;;1.30;;
4642;SDS011;2334;48.710;9.622;2022-07-11T04:52:52;2.20;;;1.73;;
4642;SDS011;2334;48.710;9.622;2022-07-11T04:55:19;3.60;;;2.00;;
4642;SDS011;2334;48.710;9.622;2022-07-11T04:57:46;2.23;;;1.53;;
4642;SDS011;2334;48.710;9.622;2022-07-11T05:00:14;1.93;;;1.67;;
4642;SDS011;2334;48.710;9.622;2022-07-11T05:02:41;2.70;;;1.80;;
4642;SDS011;2334;48.710;9.622;2022-07-11T05:05:08;7.03;;;1.60;;
4642;SDS011;2334;48.710;9.622;2022-07-11T05:07:36;3.90;;;1.70;;
4642;SDS011;2334;48.710;9.622;2022-07-11T05:10:04;5.90;;;2.00;;
4642;SDS011;2334;48.710;9.622;2022-07-11T05:12:31;1.33;;;1.20;;
4642;SDS011;2334;48.710;9.622;2022-07-11T05:14:58;7.13;;;2.53;;
4642;SDS011;2334;48.710;9.622;2022-07-11T05:17:25;1.67;;;1.57;;
4642;SDS011;2334;48.710;9.622;2022-07-11T05:19:53;4.83;;;1.83;;
4642;SDS011;2334;48.710;9.622;2022-07-11T05:22:20;2.33;;;1.83;;
4642;SDS011;2334;48.710;9.622;2022-07-11T05:24:48;2.53;;;1.77;;
4642;SDS011;2334;48.710;9.622;2022-07-11T05:27:15;4.73;;;1.70;;
4642;SDS011;2334;48.710;9.622;2022-07-11T05:29:42;1.90;;;1.80;;
4642;SDS011;2334;48.710;9.622;2022-07-11T05:32:09;9.53;;;2.30;;
4642;SDS011;2334;48.710;9.622;2022-07-11T05:34:36;3.90;;;1.90;;
4642;SDS011;2334;48.710;9.622;2022-07-11T05:37:03;1.60;;;1.50;;
4642;SDS011;2334;48.710;9.622;2022-07-11T05:39:30;2.57;;;1.90;;
4642;SDS011;2334;48.710;9.622;2022-07-11T05:41:59;2.77;;;2.53;;
4642;SDS011;2334;48.710;9.622;2022-07-11T05:44:26;5.13;;;1.80;;
4642;SDS011;2334;48.710;9.622;2022-07-11T05:46:52;1.40;;;1.30;;
4642;SDS011;2334;48.710;9.622;2022-07-11T05:49:24;1.73;;;1.63;;
4642;SDS011;2334;48.710;9.622;2022-07-11T05:51:50;1.50;;;1.50;;
4642;SDS011;2334;48.710;9.622;2022-07-11T05:54:18;1.57;;;1.47;;
4642;SDS011;2334;48.710;9.622;2022-07-11T05:56:44;6.30;;;1.57;;
4642;SDS011;2334;48.710;9.622;2022-07-11T05:59:13;1.80;;;1.70;;
4642;SDS011;2334;48.710;9.622;2022-07-11T06:01:40;1.90;;;1.80;;
4642;SDS011;2334;48.710;9.622;2022-07-11T06:04:07;1.70;;;1.60;;
4642;SDS011;2334;48.710;9.622;2022-07-11T06:06:34;4.83;;;2.00;;
4642;SDS011;2334;48.710;9.622;2022-07-11T06:09:01;3.30;;;1.70;;
4642;SDS011;2334;48.710;9.622;2022-07-11T06:11:28;2.83;;;1.70;;
4642;SDS011;2334;48.710;9.622;2022-07-11T06:13:55;4.40;;;1.77;;
4642;SDS011;2334;48.710;9.622;2022-07-11T06:16:23;1.53;;;1.43;;
4642;SDS011;2334;48.710;9.622;2022-07-11T06:18:50;2.73;;;1.67;;
4642;SDS011;2334;48.710;9.622;2022-07-11T06:21:17;2.23;;;1.70;;
4642;SDS011;2334;48.710;9.622;2022-07-11T06:23:44;3.77;;;1.40;;
4642;SDS011;2334;48.710;9.622;2022-07-11T06:26:11;3.53;;;1.97;;
4642;SDS011;2334;48.710;9.622;2022-07-11T06:28:40;5.20;;;2.80;;
4642;SDS011;2334;48.710;9.622;2022-07-11T06:31:07;2.33;;;1.50;;
4642;SDS011;2334;48.710;9.622;2022-07-11T06:33:36;1.70;;;1.60;;
4642;SDS011;2334;48.710;9.622;2022-07-11T06:36:04;4.80;;;1.53;;
4642;SDS011;2334;48.710;9.622;2022-07-11T06:38:32;2.93;;;2.07;;
4642;SDS011;2334;48.710;9.622;2022-07-11T06:41:00;2.03;;;1.83;;
4642;SDS011;2334;48.710;9.622;2022-07-11T06:43:27;2.77;;;1.97;;
4642;SDS011;2334;48.710;9.622;2022-07-11T06:45:55;7.17;;;1.90;;
4642;SDS011;2334;48.710;9.622;2022-07-11T06:48:22;2.47;;;1.70;;
4642;SDS011;2334;48.710;9.622;2022-07-11T06:50:52;4.30;;;1.80;;
4642;SDS011;2334;48.710;9.622;2022-07-11T06:53:19;2.10;;;1.90;;
4642;SDS011;2334;48.710;9.622;2022-07-11T06:55:46;3.00;;;2.30;;
4642;SDS011;2334;48.710;9.622;2022-07-11T06:58:13;1.70;;;1.60;;
4642;SDS011;2334;48.710;9.622;2022-07-11T07:00:56;6.10;;;1.93;;
4642;SDS011;2334;48.710;9.622;2022-07-11T07:03:24;3.37;;;2.00;;
4642;SDS011;2334;48.710;9.622;2022-07-11T07:05:53;2.77;;;2.10;;
4642;SDS011;2334;48.710;9.622;2022-07-11T07:08:21;1.73;;;1.60;;
4642;SDS011;2334;48.710;9.622;2022-07-11T07:10:49;4.23;;;1.87;;
4642;SDS011;2334;48.710;9.622;2022-07-11T07:13:16;3.87;;;1.77;;
4642;SDS011;2334;48.710;9.622;2022-07-11T07:15:43;1.70;;;1.60;;
4642;SDS011;2334;48.710;9.622;2022-07-11T07:18:10;1.83;;;1.73;;
4642;SDS011;2334;48.710;9.622;2022-07-11T07:20:38;4.00;;;2.10;;
4642;SDS011;2334;48.710;9.622;2022-07-11T07:23:06;6.10;;;2.50;;
4642;SDS011;2334;48.710;9.622;2022-07-11T07:25:33;2.03;;;1.77;;
4642;SDS011;2334;48.710;9.622;2022-07-11T07:28:00;3.23;;;2.13;;
4642;SDS011;2334;48.710;9.622;2022-07-11T07:30:27;2.20;;;2.00;;
4642;SDS011;2334;48.710;9.622;2022-07-11T07:32:54;11.40;;;2.40;;
4642;SDS011;2334;48.710;9.622;2022-07-11T07:35:20;2.80;;;2.03;;
4642;SDS011;2334;48.710;9.622;2022-07-11T07:37:47;4.00;;;2.47;;
4642;SDS011;2334;48.710;9.622;2022-07-11T07:40:16;3.67;;;2.43;;
4642;SDS011;2334;48.710;9.622;2022-07-11T07:42:43;3.10;;;1.80;;
4642;SDS011;2334;48.710;9.622;2022-07-11T07:45:10;4.33;;;2.43;;
4642;SDS011;2334;48.710;9.622;2022-07-11T07:47:37;2.17;;;1.77;;
4642;SDS011;2334;48.710;9.622;2022-07-11T07:50:04;1.93;;;1.77;;
4642;SDS011;2334;48.710;9.622;2022-07-11T07:52:32;1.90;;;1.57;;
4642;SDS011;2334;48.710;9.622;2022-07-11T07:54:59;1.90;;;1.77;;
4642;SDS011;2334;48.710;9.622;2022-07-11T07:57:27;2.17;;;2.00;;
4642;SDS011;2334;48.710;9.622;2022-07-11T07:59:54;3.27;;;2.10;;
4642;SDS011;2334;48.710;9.622;2022-07-11T08:02:42;2.50;;;1.60;;
4642;SDS011;2334;48.710;9.622;2022-07-11T08:05:08;4.80;;;2.07;;
4642;SDS011;2334;48.710;9.622;2022-07-11T08:07:36;4.73;;;2.17;;
4642;SDS011;2334;48.710;9.622;2022-07-11T08:10:04;1.73;;;1.60;;
4642;SDS011;2334;48.710;9.622;2022-07-11T08:12:33;2.10;;;1.70;;
4642;SDS011;2334;48.710;9.622;2022-07-11T08:15:00;1.80;;;1.70;;
4642;SDS011;2334;48.710;9.622;2022-07-11T08:17:27;4.43;;;2.10;;
4642;SDS011;2334;48.710;9.622;2022-07-11T08:19:54;2.40;;;1.87;;
4642;SDS011;2334;48.710;9.622;2022-07-11T08:22:21;3.33;;;1.80;;
4642;SDS011;2334;48.710;9.622;2022-07-11T08:24:48;2.17;;;1.97;;
4642;SDS011;2334;48.710;9.622;2022-07-11T08:27:15;3.30;;;2.30;;
4642;SDS011;2334;48.710;9.622;2022-07-11T08:29:43;3.23;;;2.20;;
4642;SDS011;2334;48.710;9.622;2022-07-11T08:32:10;3.00;;;1.50;;
4642;SDS011;2334;48.710;9.622;2022-07-11T08:34:37;1.60;;;1.40;;
4642;SDS011;2334;48.710;9.622;2022-07-11T08:37:04;2.20;;;1.33;;
4642;SDS011;2334;48.710;9.622;2022-07-11T08:39:31;2.50;;;1.90;;
4642;SDS011;2334;48.710;9.622;2022-07-11T08:41:58;3.43;;;1.50;;
4642;SDS011;2334;48.710;9.622;2022-07-11T08:44:25;2.93;;;2.03;;
4642;SDS011;2334;48.710;9.622;2022-07-11T08:46:54;1.97;;;1.83;;
4642;SDS011;2334;48.710;9.622;2022-07-11T08:49:23;6.63;;;2.43;;
4642;SDS011;2334;48.710;9.622;2022-07-11T08:51:52;1.70;;;1.20;;
4642;SDS011;2334;48.710;9.622;2022-07-11T08:54:19;1.47;;;1.37;;
4642;SDS011;2334;48.710;9.622;2022-07-11T08:56:47;1.93;;;1.80;;
4642;SDS011;2334;48.710;9.622;2022-07-11T08:59:15;1.37;;;1.27;;
4642;SDS011;2334;48.710;9.622;2022-07-11T09:01:44;1.10;;;1.10;;
4642;SDS011;2334;48.710;9.622;2022-07-11T09:04:14;1.30;;;1.20;;
4642;SDS011;2334;48.710;9.622;2022-07-11T09:06:42;1.13;;;1.10;;
4642;SDS011;2334;48.710;9.622;2022-07-11T09:09:09;2.93;;;1.00;;
4642;SDS011;2334;48.710;9.622;2022-07-11T09:11:48;1.00;;;0.97;;
4642;SDS011;2334;48.710;9.622;2022-07-11T09:14:20;3.17;;;1.10;;
4642;SDS011;2334;48.710;9.622;2022-07-11T09:16:52;1.17;;;1.10;;
4642;SDS011;2334;48.710;9.622;2022-07-11T09:19:22;1.43;;;1.33;;
4642;SDS011;2334;48.710;9.622;2022-07-11T09:22:00;1.13;;;1.10;;
4642;SDS011;2334;48.710;9.622;2022-07-11T09:24:56;1.10;;;1.10;;
4642;SDS011;2334;48.710;9.622;2022-07-11T09:27:42;0.83;;;0.83;;
4642;SDS011;2334;48.710;9.622;2022-07-11T09:30:15;0.97;;;0.90;;
4642;SDS011;2334;48.710;9.622;2022-07-11T09:32:51;6.33;;;1.13;;
4642;SDS011;2334;48.710;9.622;2022-07-11T09:35:24;1.60;;;1.50;;
4642;SDS011;2334;48.710;9.622;2022-07-11T09:37:52;1.53;;;0.90;;
4642;SDS011;2334;48.710;9.622;2022-07-11T09:40:19;1.40;;;1.30;;
4642;SDS011;2334;48.710;9.622;2022-07-11T09:42:48;1.00;;;0.97;;
4642;SDS011;2334;48.710;9.622;2022-07-11T09:45:16;1.73;;;1.10;;
4642;SDS011;2334;48.710;9.622;2022-07-11T09:47:45;1.00;;;1.00;;
4642;SDS011;2334;48.710;9.622;2022-07-11T09:50:13;1.13;;;1.03;;
4642;SDS011;2334;48.710;9.622;2022-07-11T09:52:58;0.90;;;0.90;;
4642;SDS011;2334;48.710;9.622;2022-07-11T09:55:27;0.80;;;0.80;;
4642;SDS011;2334;48.710;9.622;2022-07-11T09:57:55;0.90;;;0.90;;
4642;SDS011;2334;48.710;9.622;2022-07-11T10:00:22;1.47;;;1.00;;
4642;SDS011;2334;48.710;9.622;2022-07-11T10:02:51;1.60;;;0.93;;
4642;SDS011;2334;48.710;9.622;2022-07-11T10:05:20;2.23;;;0.90;;
4642;SDS011;2334;48.710;9.622;2022-07-11T10:07:47;0.87;;;0.87;;
4642;SDS011;2334;48.710;9.622;2022-07-11T10:10:16;1.30;;;0.90;;
4642;SDS011;2334;48.710;9.622;2022-07-11T10:12:43;0.80;;;0.80;;
4642;SDS011;2334;48.710;9.622;2022-07-11T10:15:12;3.00;;;0.93;;
4642;SDS011;2334;48.710;9.622;2022-07-11T10:17:44;1.70;;;1.00;;
4642;SDS011;2334;48.710;9.622;2022-07-11T10:20:20;1.20;;;1.07;;
4642;SDS011;2334;48.710;9.622;2022-07-11T10:22:53;1.17;;;0.90;;
4642;SDS011;2334;48.710;9.622;2022-07-11T10:25:31;0.90;;;0.90;;
4642;SDS011;2334;48.710;9.622;2022-07-11T10:28:06;1.13;;;0.90;;
4642;SDS011;2334;48.710;9.622;2022-07-11T10:30:45;0.90;;;0.90;;
4642;SDS011;2334;48.710;9.622;2022-07-11T10:33:14;1.73;;;0.97;;
4642;SDS011;2334;48.710;9.622;2022-07-11T10:35:43;0.70;;;0.70;;
4642;SDS011;2334;48.710;9.622;2022-07-11T10:38:11;0.60;;;0.60;;
4642;SDS011;2334;48.710;9.622;2022-07-11T10:40:50;1.87;;;0.67;;
4642;SDS011;2334;48.710;9.622;2022-07-11T10:43:36;0.80;;;0.80;;
4642;SDS011;2334;48.710;9.622;2022-07-11T10:46:06;0.63;;;0.63;;
4642;SDS011;2334;48.710;9.622;2022-07-11T10:48:34;1.03;;;1.03;;
4642;SDS011;2334;48.710;9.622;2022-07-11T10:51:21;1.03;;;0.90;;
4642;SDS011;2334;48.710;9.622;2022-07-11T10:53:51;15.30;;;1.53;;
4642;SDS011;2334;48.710;9.622;2022-07-11T10:56:27;0.90;;;0.90;;
4642;SDS011;2334;48.710;9.622;2022-07-11T10:59:10;1.00;;;1.00;;
4642;SDS011;2334;48.710;9.622;2022-07-11T11:04:46;0.70;;;0.70;;
4642;SDS011;2334;48.710;9.622;2022-07-11T11:07:30;4.60;;;0.80;;
4642;SDS011;2334;48.710;9.622;2022-07-11T11:09:59;0.80;;;0.80;;
4642;SDS011;2334;48.710;9.622;2022-07-11T11:15:33;0.80;;;0.80;;
4642;SDS011;2334;48.710;9.622;2022-07-11T11:21:12;1.00;;;0.97;;
4642;SDS011;2334;48.710;9.622;2022-07-11T11:23:53;0.60;;;0.50;;
4642;SDS011;2334;48.710;9.622;2022-07-11T11:26:48;0.90;;;0.90;;
4642;SDS011;2334;48.710;9.622;2022-07-11T11:29:20;3.27;;;0.80;;
4642;SDS011;2334;48.710;9.622;2022-07-11T11:31:51;1.53;;;0.90;;
4642;SDS011;2334;48.710;9.622;2022-07-11T11:34:19;1.20;;;1.10;;
4642;SDS011;2334;48.710;9.622;2022-07-11T11:36:56;0.90;;;0.90;;
4642;SDS011;2334;48.710;9.622;2022-07-11T11:39:26;0.93;;;0.93;;
4642;SDS011;2334;48.710;9.622;2022-07-11T11:42:02;0.73;;;0.73;;
4642;SDS011;2334;48.710;9.622;2022-07-11T11:44:30;2.83;;;0.90;;
4642;SDS011;2334;48.710;9.622;2022-07-11T11:46:59;1.20;;;1.10;;
4642;SDS011;2334;48.710;9.622;2022-07-11T11:49:26;1.00;;;1.00;;
4642;SDS011;2334;48.710;9.622;2022-07-11T11:51:54;0.80;;;0.80;;
4642;SDS011;2334;48.710;9.622;2022-07-11T11:54:22;0.80;;;0.80;;
4642;SDS011;2334;48.710;9.622;2022-07-11T11:56:50;1.10;;;0.90;;
4642;SDS011;2334;48.710;9.622;2022-07-11T11:59:17;1.13;;;0.87;;
4642;SDS011;2334;48.710;9.622;2022-07-11T12:01:46;1.27;;;1.00;;
4642;SDS011;2334;48.710;9.622;2022-07-11T12:04:15;2.17;;;1.17;;
4642;SDS011;2334;48.710;9.622;2022-07-11T12:06:43;2.70;;;0.80;;
4642;SDS011;2334;48.710;9.622;2022-07-11T12:09:12;5.27;;;1.97;;
4642;SDS011;2334;48.710;9.622;2022-07-11T12:11:42;3.43;;;1.07;;
4642;SDS011;2334;48.710;9.622;2022-07-11T12:14:12;0.90;;;0.90;;
4642;SDS011;2334;48.710;9.622;2022-07-11T12:16:41;1.00;;;1.00;;
4642;SDS011;2334;48.710;9.622;2022-07-11T12:19:09;1.10;;;0.90;;
4642;SDS011;2334;48.710;9.622;2022-07-11T12:21:40;1.40;;;1.30;;
4642;SDS011;2334;48.710;9.622;2022-07-11T12:24:08;0.90;;;0.90;;
4642;SDS011;2334;48.710;9.622;2022-07-11T12:26:38;1.20;;;0.93;;
4642;SDS011;2334;48.710;9.622;2022-07-11T12:29:10;0.90;;;0.90;;
4642;SDS011;2334;48.710;9.622;2022-07-11T12:31:41;0.80;;;0.80;;
4642;SDS011;2334;48.710;9.622;2022-07-11T12:34:10;0.80;;;0.80;;
4642;SDS011;2334;48.710;9.622;2022-07-11T12:36:37;1.30;;;0.90;;
4642;SDS011;2334;48.710;9.622;2022-07-11T12:39:06;1.00;;;1.00;;
4642;SDS011;2334;48.710;9.622;2022-07-11T12:41:33;4.50;;;0.90;;
4642;SDS011;2334;48.710;9.622;2022-07-11T12:44:01;3.70;;;1.03;;
4642;SDS011;2334;48.710;9.622;2022-07-11T12:46:45;1.13;;;1.13;;
4642;SDS011;2334;48.710;9.622;2022-07-11T12:49:18;1.30;;;1.30;;
4642;SDS011;2334;48.710;9.622;2022-07-11T12:51:47;3.03;;;1.10;;
4642;SDS011;2334;48.710;9.622;2022-07-11T12:54:14;1.00;;;1.00;;
4642;SDS011;2334;48.710;9.622;2022-07-11T12:56:50;1.07;;;0.80;;
4642;SDS011;2334;48.710;9.622;2022-07-11T12:59:20;5.80;;;0.93;;
4642;SDS011;2334;48.710;9.622;2022-07-11T13:01:56;0.87;;;0.87;;
4642;SDS011;2334;48.710;9.622;2022-07-11T13:04:28;1.20;;;1.10;;
4642;SDS011;2334;48.710;9.622;2022-07-11T13:10:13;1.00;;;1.00;;
4642;SDS011;2334;48.710;9.622;2022-07-11T13:12:41;0.90;;;0.90;;
4642;SDS011;2334;48.710;9.622;2022-07-11T13:15:10;1.17;;;0.90;;
4642;SDS011;2334;48.710;9.622;2022-07-11T13:17:38;2.40;;;1.30;;
4642;SDS011;2334;48.710;9.622;2022-07-11T13:20:07;1.00;;;1.00;;
4642;SDS011;2334;48.710;9.622;2022-07-11T13:22:39;2.43;;;1.30;;
4642;SDS011;2334;48.710;9.622;2022-07-11T13:25:06;1.33;;;1.07;;
4642;SDS011;2334;48.710;9.622;2022-07-11T13:27:35;1.13;;;0.93;;
4642;SDS011;2334;48.710;9.622;2022-07-11T13:30:02;1.00;;;1.00;;
4642;SDS011;2334;48.710;9.622;2022-07-11T13:32:36;2.13;;;1.90;;
4642;SDS011;2334;48.710;9.622;2022-07-11T13:35:03;1.00;;;1.00;;
4642;SDS011;2334;48.710;9.622;2022-07-11T13:37:31;1.07;;;1.07;;
4642;SDS011;2334;48.710;9.622;2022-07-11T13:40:01;0.93;;;0.93;;
4642;SDS011;2334;48.710;9.622;2022-07-11T13:42:29;1.00;;;0.90;;
4642;SDS011;2334;48.710;9.622;2022-07-11T13:44:57;2.47;;;1.23;;
4642;SDS011;2334;48.710;9.622;2022-07-11T13:47:25;1.00;;;1.00;;
4642;SDS011;2334;48.710;9.622;2022-07-11T13:49:52;1.10;;;1.00;;
4642;SDS011;2334;48.710;9.622;2022-07-11T13:52:19;1.20;;;1.10;;
4642;SDS011;2334;48.710;9.622;2022-07-11T13:54:46;1.10;;;1.07;;
4642;SDS011;2334;48.710;9.622;2022-07-11T13:57:14;1.60;;;1.33;;
4642;SDS011;2334;48.710;9.622;2022-07-11T13:59:41;1.07;;;1.03;;
4642;SDS011;2334;48.710;9.622;2022-07-11T14:02:08;1.30;;;1.30;;
4642;SDS011;2334;48.710;9.622;2022-07-11T14:04:35;1.33;;;1.33;;
4642;SDS011;2334;48.710;9.622;2022-07-11T14:07:02;4.70;;;1.40;;
4642;SDS011;2334;48.710;9.622;2022-07-11T14:09:30;2.37;;;1.43;;
4642;SDS011;2334;48.710;9.622;2022-07-11T14:11:58;3.90;;;1.50;;
4642;SDS011;2334;48.710;9.622;2022-07-11T14:14:27;5.13;;;2.13;;
4642;SDS011;2334;48.710;9.622;2022-07-11T14:16:54;2.30;;;1.40;;
4642;SDS011;2334;48.710;9.622;2022-07-11T14:19:21;1.23;;;1.20;;
4642;SDS011;2334;48.710;9.622;2022-07-11T14:21:49;3.30;;;1.00;;
4642;SDS011;2334;48.710;9.622;2022-07-11T14:24:16;2.17;;;1.30;;
4642;SDS011;2334;48.710;9.622;2022-07-11T14:26:43;1.77;;;1.50;;
4642;SDS011;2334;48.710;9.622;2022-07-11T14:29:11;1.20;;;1.10;;
4642;SDS011;2334;48.710;9.622;2022-07-11T14:31:39;1.70;;;1.57;;
4642;SDS011;2334;48.710;9.622;2022-07-11T14:34:06;1.20;;;1.20;;
4642;SDS011;2334;48.710;9.622;2022-07-11T14:36:36;1.63;;;1.53;;
4642;SDS011;2334;48.710;9.622;2022-07-11T14:39:04;11.33;;;2.23;;
4642;SDS011;2334;48.710;9.622;2022-07-11T14:41:31;1.57;;;1.47;;
4642;SDS011;2334;48.710;9.622;2022-07-11T14:43:57;1.23;;;1.13;;
4642;SDS011;2334;48.710;9.622;2022-07-11T14:46:26;1.67;;;1.30;;
4642;SDS011;2334;48.710;9.622;2022-07-11T14:48:54;1.50;;;1.40;;
4642;SDS011;2334;48.710;9.622;2022-07-11T14:51:21;4.00;;;1.30;;
4642;SDS011;2334;48.710;9.622;2022-07-11T14:53:48;1.40;;;1.30;;
4642;SDS011;2334;48.710;9.622;2022-07-11T14:56:15;1.40;;;1.30;;
4642;SDS011;2334;48.710;9.622;2022-07-11T14:58:42;1.60;;;1.50;;
4642;SDS011;2334;48.710;9.622;2022-07-11T15:01:09;1.30;;;1.20;;
4642;SDS011;2334;48.710;9.622;2022-07-11T15:03:36;1.83;;;1.40;;
4642;SDS011;2334;48.710;9.622;2022-07-11T15:06:05;3.37;;;1.47;;
4642;SDS011;2334;48.710;9.622;2022-07-11T15:08:33;1.63;;;1.50;;
4642;SDS011;2334;48.710;9.622;2022-07-11T15:11:17;1.60;;;1.50;;
4642;SDS011;2334;48.710;9.622;2022-07-11T15:14:02;2.83;;;1.00;;
4642;SDS011;2334;48.710;9.622;2022-07-11T15:16:29;1.30;;;1.20;;
4642;SDS011;2334;48.710;9.622;2022-07-11T15:18:56;4.40;;;1.70;;
4642;SDS011;2334;48.710;9.622;2022-07-11T15:21:25;1.50;;;1.40;;
4642;SDS011;2334;48.710;9.622;2022-07-11T15:23:52;1.37;;;1.27;;
4642;SDS011;2334;48.710;9.622;2022-07-11T15:26:20;1.57;;;1.20;;
4642;SDS011;2334;48.710;9.622;2022-07-11T15:28:47;12.27;;;2.03;;
4642;SDS011;2334;48.710;9.622;2022-07-11T15:31:14;6.17;;;2.00;;
4642;SDS011;2334;48.710;9.622;2022-07-11T15:33:41;2.53;;;1.70;;
4642;SDS011;2334;48.710;9.622;2022-07-11T15:36:10;1.70;;;1.50;;
4642;SDS011;2334;48.710;9.622;2022-07-11T15:38:38;2.07;;;1.70;;